createdAt,value
2018-03-19T00:01:11.618Z,-1.70
2018-03-19T00:03:39.488Z,-1.50
2018-03-19T00:06:08.243Z,-1.30
2018-03-19T00:08:37.491Z,-1.30
2018-03-19T00:11:09.325Z,-1.20
2018-03-19T00:13:37.813Z,-1.50
2018-03-19T00:16:06.245Z,-1.70
2018-03-19T00:18:35.908Z,-1.90
2018-03-19T00:21:04.627Z,-1.90
2018-03-19T00:23:33.979Z,-1.70
2018-03-19T00:26:02.752Z,-1.50
2018-03-19T00:28:31.232Z,-1.40
2018-03-19T00:30:59.457Z,-1.50
2018-03-19T00:43:12.573Z,-1.40
2018-03-19T00:45:41.536Z,-2.00
2018-03-19T00:48:10.666Z,-1.90
2018-03-19T00:50:40.733Z,-1.80
2018-03-19T00:53:08.771Z,-1.80
2018-03-19T00:55:36.944Z,-1.60
2018-03-19T00:58:08.492Z,-1.50
2018-03-19T01:00:38.160Z,-1.30
2018-03-19T01:03:06.567Z,-1.20
2018-03-19T01:05:37.110Z,-1.30
2018-03-19T01:08:04.686Z,-1.80
2018-03-19T01:10:33.085Z,-1.80
2018-03-19T01:13:01.172Z,-1.80
2018-03-19T01:15:31.028Z,-2.10
2018-03-19T01:18:00.040Z,-1.90
2018-03-19T01:20:28.516Z,-1.80
2018-03-19T01:22:58.215Z,-1.80
2018-03-19T01:25:27.156Z,-1.60
2018-03-19T01:27:55.979Z,-1.60
2018-03-19T01:30:26.977Z,-1.70
2018-03-19T01:32:55.199Z,-1.80
2018-03-19T01:35:23.983Z,-1.70
2018-03-19T01:37:52.667Z,-1.80
2018-03-19T01:40:22.462Z,-1.50
2018-03-19T01:42:52.027Z,-1.60
2018-03-19T01:45:20.101Z,-1.60
2018-03-19T01:47:48.724Z,-1.70
2018-03-19T01:50:17.404Z,-1.60
2018-03-19T01:52:49.945Z,-1.40
2018-03-19T01:55:18.909Z,-1.40
2018-03-19T01:57:47.606Z,-1.40
2018-03-19T02:00:15.778Z,-1.50
2018-03-19T02:02:46.397Z,-1.50
2018-03-19T02:05:14.861Z,-1.50
2018-03-19T02:07:43.165Z,-1.50
2018-03-19T02:10:11.496Z,-1.50
2018-03-19T02:12:39.503Z,-1.90
2018-03-19T02:15:08.510Z,-2.00
2018-03-19T02:17:37.747Z,-1.70
2018-03-19T02:20:07.300Z,-1.60
2018-03-19T02:22:36.449Z,-1.60
2018-03-19T02:25:05.050Z,-1.40
2018-03-19T02:27:35.808Z,-1.50
2018-03-19T02:30:04.397Z,-1.60
2018-03-19T02:32:33.146Z,-1.60
2018-03-19T02:35:01.638Z,-1.60
2018-03-19T02:37:30.096Z,-1.70
2018-03-19T02:39:58.817Z,-1.90
2018-03-19T02:42:30.295Z,-2.00
2018-03-19T02:45:00.669Z,-1.90
2018-03-19T02:47:28.872Z,-1.90
2018-03-19T02:49:58.408Z,-2.10
2018-03-19T02:52:25.966Z,-2.10
2018-03-19T02:54:54.710Z,-2.20
2018-03-19T02:57:23.408Z,-2.00
2018-03-19T02:59:52.637Z,-2.30
2018-03-19T03:02:22.255Z,-2.30
2018-03-19T03:04:50.967Z,-2.20
2018-03-19T03:07:22.223Z,-2.40
2018-03-19T03:09:50.753Z,-2.20
2018-03-19T03:12:19.963Z,-2.20
2018-03-19T03:14:48.378Z,-2.00
2018-03-19T03:17:15.926Z,-1.90
2018-03-19T03:19:45.144Z,-1.80
2018-03-19T03:22:14.139Z,-1.90
2018-03-19T03:24:42.280Z,-1.90
2018-03-19T03:27:12.513Z,-1.90
2018-03-19T03:29:42.930Z,-1.90
2018-03-19T03:32:12.385Z,-2.00
2018-03-19T03:34:41.003Z,-2.10
2018-03-19T03:37:09.003Z,-1.90
2018-03-19T03:39:37.676Z,-1.90
2018-03-19T03:42:06.083Z,-1.70
2018-03-19T03:44:35.088Z,-1.80
2018-03-19T03:47:03.228Z,-2.10
2018-03-19T03:49:32.022Z,-1.90
2018-03-19T03:52:03.856Z,-1.90
2018-03-19T03:54:33.075Z,-1.80
2018-03-19T03:57:02.747Z,-1.80
2018-03-19T03:59:32.450Z,-2.00
2018-03-19T04:02:01.084Z,-1.90
2018-03-19T04:04:29.136Z,-2.10
2018-03-19T04:06:57.621Z,-2.50
2018-03-19T04:09:25.890Z,-2.50
2018-03-19T04:11:54.842Z,-2.30
2018-03-19T04:14:23.221Z,-2.40
2018-03-19T04:16:53.432Z,-2.40
2018-03-19T04:19:23.563Z,-2.70
2018-03-19T04:21:52.426Z,-2.60
2018-03-19T04:24:21.585Z,-2.30
2018-03-19T04:26:51.804Z,-2.40
2018-03-19T04:29:19.980Z,-2.40
2018-03-19T04:31:48.109Z,-2.20
2018-03-19T04:34:16.870Z,-2.10
2018-03-19T04:36:45.802Z,-2.10
2018-03-19T04:39:14.303Z,-2.50
2018-03-19T04:41:41.922Z,-2.30
2018-03-19T04:44:10.010Z,-2.40
2018-03-19T04:46:39.757Z,-2.40
2018-03-19T04:49:09.286Z,-2.60
2018-03-19T04:51:37.775Z,-2.90
2018-03-19T04:54:05.851Z,-2.90
2018-03-19T04:56:34.266Z,-2.70
2018-03-19T04:59:02.747Z,-2.60
2018-03-19T05:01:31.943Z,-2.40
2018-03-19T05:04:02.371Z,-2.50
2018-03-19T05:06:31.561Z,-2.60
2018-03-19T05:09:01.313Z,-3.00
2018-03-19T05:11:30.353Z,-3.00
2018-03-19T05:13:58.711Z,-3.00
2018-03-19T05:16:28.601Z,-2.90
2018-03-19T05:18:58.425Z,-2.80
2018-03-19T05:21:27.355Z,-2.80
2018-03-19T05:23:54.966Z,-2.80
2018-03-19T05:26:25.526Z,-3.10
2018-03-19T05:28:54.880Z,-2.80
2018-03-19T05:31:23.824Z,-2.50
2018-03-19T05:33:53.529Z,-2.60
2018-03-19T05:36:21.181Z,-2.60
2018-03-19T05:38:51.029Z,-2.60
2018-03-19T05:41:21.178Z,-2.60
2018-03-19T05:43:52.811Z,-2.40
2018-03-19T05:46:20.839Z,-2.40
2018-03-19T05:48:51.284Z,-2.60
2018-03-19T05:51:18.939Z,-2.60
2018-03-19T05:53:47.367Z,-2.40
2018-03-19T05:56:17.383Z,-2.30
2018-03-19T05:58:48.373Z,-2.20
2018-03-19T06:01:18.479Z,-1.90
2018-03-19T06:03:49.646Z,-1.90
2018-03-19T06:06:17.873Z,-1.90
2018-03-19T06:08:47.079Z,-1.90
2018-03-19T06:11:16.193Z,-1.80
2018-03-19T06:13:46.301Z,-2.20
2018-03-19T06:16:15.875Z,-2.30
2018-03-19T06:18:44.497Z,-2.10
2018-03-19T06:21:13.671Z,-2.50
2018-03-19T06:23:41.345Z,-2.50
2018-03-19T06:26:10.127Z,-2.60
2018-03-19T06:28:40.796Z,-2.80
2018-03-19T06:31:12.112Z,-2.60
2018-03-19T06:33:45.663Z,-2.40
2018-03-19T06:36:13.904Z,-2.30
2018-03-19T06:38:43.196Z,-2.10
2018-03-19T06:41:12.380Z,-2.00
2018-03-19T06:43:41.773Z,-2.10
2018-03-19T06:46:10.854Z,-2.00
2018-03-19T06:48:39.211Z,-2.00
2018-03-19T06:51:08.174Z,-2.50
2018-03-19T06:53:38.166Z,-2.30
2018-03-19T06:56:06.949Z,-2.30
2018-03-19T06:58:35.987Z,-2.50
2018-03-19T07:01:07.062Z,-2.60
2018-03-19T07:03:36.290Z,-2.60
2018-03-19T07:06:04.801Z,-2.40
2018-03-19T07:08:33.801Z,-2.20
2018-03-19T07:11:05.219Z,-1.90
2018-03-19T07:13:33.256Z,-1.80
2018-03-19T07:16:01.962Z,-1.80
2018-03-19T07:18:31.006Z,-1.80
2018-03-19T07:21:02.219Z,-1.50
2018-03-19T07:23:30.941Z,-1.50
2018-03-19T07:25:59.944Z,-1.40
2018-03-19T07:28:29.162Z,-1.70
2018-03-19T07:30:57.687Z,-2.00
2018-03-19T07:33:26.450Z,-2.00
2018-03-19T07:35:55.311Z,-1.80
2018-03-19T07:38:23.523Z,-1.80
2018-03-19T07:40:53.046Z,-2.00
2018-03-19T07:43:20.836Z,-2.00
2018-03-19T07:45:49.742Z,-1.90
2018-03-19T07:48:17.919Z,-1.60
2018-03-19T07:50:47.813Z,-1.80
2018-03-19T07:53:18.500Z,-2.20
2018-03-19T07:55:48.894Z,-2.20
2018-03-19T07:58:18.172Z,-2.10
2018-03-19T08:00:47.969Z,-1.80
2018-03-19T08:03:18.432Z,-1.70
2018-03-19T08:05:47.939Z,-1.70
2018-03-19T08:08:18.285Z,-1.60
2018-03-19T08:10:46.434Z,-1.60
2018-03-19T08:13:16.038Z,-1.30
2018-03-19T08:15:44.986Z,-1.30
2018-03-19T08:18:14.229Z,-1.20
2018-03-19T08:20:42.415Z,-1.20
2018-03-19T08:23:11.805Z,-1.00
2018-03-19T08:25:41.457Z,-1.00
2018-03-19T08:28:10.885Z,-0.90
2018-03-19T08:30:41.461Z,-0.70
2018-03-19T08:33:10.841Z,-0.70
2018-03-19T08:35:41.969Z,-0.70
2018-03-19T08:38:14.023Z,-0.70
2018-03-19T08:40:43.045Z,-1.20
2018-03-19T08:52:57.363Z,-1.10
2018-03-19T08:55:27.820Z,-1.20
2018-03-19T08:57:55.948Z,-1.20
2018-03-19T09:00:29.579Z,-1.10
2018-03-19T09:02:58.697Z,-1.10
2018-03-19T09:05:27.883Z,-0.80
2018-03-19T09:07:56.655Z,-0.70
2018-03-19T09:10:26.575Z,-1.10
2018-03-19T09:12:55.598Z,-1.10
2018-03-19T09:15:23.241Z,-0.90
2018-03-19T09:17:50.902Z,-0.90
2018-03-19T09:20:18.525Z,-1.00
2018-03-19T09:22:46.843Z,-1.00
2018-03-19T09:25:14.770Z,-1.00
2018-03-19T09:27:42.319Z,-0.90
2018-03-19T09:30:09.959Z,-0.70
2018-03-19T09:32:38.314Z,-0.80
2018-03-19T09:35:07.238Z,-0.60
2018-03-19T09:37:34.885Z,-0.70
2018-03-19T09:40:03.191Z,-0.50
2018-03-19T09:42:31.673Z,-0.40
2018-03-19T09:45:00.243Z,-0.30
2018-03-19T09:47:28.431Z,-0.20
2018-03-19T09:49:56.935Z,-0.20
2018-03-19T09:52:26.609Z,0.10
2018-03-19T09:54:54.240Z,0.00
2018-03-19T09:57:21.823Z,0.00
2018-03-19T09:59:50.273Z,0.10
2018-03-19T10:02:17.923Z,0.10
2018-03-19T10:04:46.506Z,0.00
2018-03-19T10:07:14.843Z,0.20
2018-03-19T10:09:43.224Z,0.40
2018-03-19T10:12:11.547Z,0.30
2018-03-19T10:14:39.938Z,0.40
2018-03-19T10:17:08.331Z,0.60
2018-03-19T10:19:37.445Z,0.80
2018-03-19T10:22:05.618Z,0.80
2018-03-19T10:24:33.636Z,0.90
2018-03-19T10:27:01.660Z,0.90
2018-03-19T10:29:29.254Z,0.60
2018-03-19T10:31:57.571Z,0.40
2018-03-19T10:34:25.759Z,0.40
2018-03-19T10:36:53.318Z,-0.10
2018-03-19T10:39:21.812Z,0.00
2018-03-19T10:41:49.398Z,0.30
2018-03-19T10:44:16.950Z,0.00
2018-03-19T10:46:45.345Z,0.20
2018-03-19T10:49:12.927Z,0.10
2018-03-19T10:51:41.835Z,0.20
2018-03-19T10:54:09.580Z,0.10
2018-03-19T10:56:38.371Z,0.00
2018-03-19T10:59:06.003Z,0.00
2018-03-19T11:01:39.225Z,0.10
2018-03-19T11:04:14.441Z,0.10
2018-03-19T11:06:48.652Z,-0.40
2018-03-19T11:09:21.957Z,-0.40
2018-03-19T11:11:51.850Z,-0.20
2018-03-19T11:14:19.562Z,-0.20
2018-03-19T11:16:48.017Z,-0.30
2018-03-19T11:19:16.501Z,-0.10
2018-03-19T11:21:46.128Z,0.20
2018-03-19T11:24:13.740Z,0.20
2018-03-19T11:26:41.350Z,0.30
2018-03-19T11:29:09.739Z,0.50
2018-03-19T11:31:37.511Z,0.50
2018-03-19T11:34:05.637Z,0.70
2018-03-19T11:36:33.272Z,0.40
2018-03-19T11:39:01.025Z,0.50
2018-03-19T11:41:28.583Z,0.50
2018-03-19T11:43:57.145Z,-0.10
2018-03-19T11:46:26.582Z,0.20
2018-03-19T11:48:54.379Z,0.30
2018-03-19T11:51:22.799Z,0.00
2018-03-19T11:53:50.721Z,0.00
2018-03-19T11:56:18.326Z,0.10
2018-03-19T11:58:45.945Z,0.10
2018-03-19T12:01:13.505Z,0.10
2018-03-19T12:03:42.039Z,0.40
2018-03-19T12:06:09.633Z,0.70
2018-03-19T12:08:37.932Z,0.80
2018-03-19T12:11:07.113Z,0.70
2018-03-19T12:13:34.668Z,0.60
2018-03-19T12:16:02.256Z,0.70
2018-03-19T12:18:31.550Z,0.70
2018-03-19T12:20:59.096Z,0.70
2018-03-19T12:23:26.661Z,0.90
2018-03-19T12:25:54.443Z,0.80
2018-03-19T12:28:22.030Z,0.90
2018-03-19T12:30:49.567Z,0.70
2018-03-19T12:33:17.960Z,0.40
2018-03-19T12:35:45.710Z,0.40
2018-03-19T12:38:13.711Z,0.20
2018-03-19T12:40:41.337Z,0.20
2018-03-19T12:43:09.469Z,0.40
2018-03-19T12:45:37.718Z,0.30
2018-03-19T12:48:06.072Z,0.10
2018-03-19T12:50:33.669Z,0.10
2018-03-19T12:53:01.309Z,-0.10
2018-03-19T12:55:28.894Z,-0.10
2018-03-19T12:57:56.609Z,-0.10
2018-03-19T13:00:25.593Z,-0.10
2018-03-19T13:02:54.348Z,-0.10
2018-03-19T13:05:22.069Z,-0.10
2018-03-19T13:07:50.403Z,0.00
2018-03-19T13:10:18.029Z,0.30
2018-03-19T13:12:45.635Z,0.40
2018-03-19T13:15:13.281Z,0.20
2018-03-19T13:17:41.788Z,0.20
2018-03-19T13:20:10.323Z,0.10
2018-03-19T13:22:37.945Z,0.30
2018-03-19T13:25:06.282Z,0.20
2018-03-19T13:27:33.877Z,0.10
2018-03-19T13:30:01.507Z,0.10
2018-03-19T13:32:29.116Z,0.20
2018-03-19T13:34:57.750Z,0.00
2018-03-19T13:37:25.924Z,0.00
2018-03-19T13:39:53.479Z,0.10
2018-03-19T13:42:21.658Z,0.40
2018-03-19T13:44:49.227Z,0.40
2018-03-19T13:47:19.737Z,0.40
2018-03-19T13:49:47.288Z,0.60
2018-03-19T13:52:15.399Z,0.40
2018-03-19T13:54:43.015Z,0.30
2018-03-19T13:57:11.214Z,0.50
2018-03-19T13:59:38.754Z,0.50
2018-03-19T14:02:06.652Z,0.60
2018-03-19T14:04:36.143Z,0.50
2018-03-19T14:07:03.708Z,0.50
2018-03-19T14:09:31.256Z,0.50
2018-03-19T14:12:00.566Z,0.60
2018-03-19T14:14:28.756Z,0.40
2018-03-19T14:16:56.326Z,0.30
2018-03-19T14:19:25.107Z,0.40
2018-03-19T14:21:53.266Z,0.60
2018-03-19T14:24:20.833Z,0.70
2018-03-19T14:26:49.070Z,0.90
2018-03-19T14:29:16.669Z,0.80
2018-03-19T14:31:44.276Z,0.40
2018-03-19T14:34:12.396Z,0.40
2018-03-19T14:36:39.973Z,0.30
2018-03-19T14:39:07.637Z,0.40
2018-03-19T14:41:36.871Z,0.40
2018-03-19T14:44:04.792Z,0.40
2018-03-19T14:46:32.388Z,0.60
2018-03-19T14:48:59.989Z,0.50
2018-03-19T14:51:29.095Z,0.50
2018-03-19T14:53:56.682Z,0.30
2018-03-19T14:56:24.323Z,0.30
2018-03-19T14:58:51.957Z,0.40
2018-03-19T15:01:20.307Z,0.60
2018-03-19T15:03:48.646Z,0.50
2018-03-19T15:06:16.247Z,0.40
2018-03-19T15:08:44.598Z,0.50
2018-03-19T15:11:13.652Z,0.60
2018-03-19T15:13:41.872Z,0.50
2018-03-19T15:16:09.432Z,0.60
2018-03-19T15:18:37.725Z,0.40
2018-03-19T15:21:06.163Z,0.30
2018-03-19T15:23:34.837Z,0.30
2018-03-19T15:26:02.406Z,0.40
2018-03-19T15:28:30.854Z,0.50
2018-03-19T15:30:59.170Z,0.80
2018-03-19T15:33:27.302Z,0.80
2018-03-19T15:35:55.829Z,0.40
2018-03-19T15:38:23.381Z,0.40
2018-03-19T15:40:51.004Z,0.20
2018-03-19T15:43:19.329Z,0.10
2018-03-19T15:45:47.452Z,0.10
2018-03-19T15:48:17.190Z,0.00
2018-03-19T15:50:45.232Z,0.00
2018-03-19T15:53:13.727Z,0.20
2018-03-19T15:55:41.958Z,0.10
2018-03-19T15:58:09.571Z,0.10
2018-03-19T16:00:41.074Z,0.00
2018-03-19T16:03:08.665Z,-0.20
2018-03-19T16:05:37.018Z,-0.10
2018-03-19T16:08:04.794Z,-0.10
2018-03-19T16:10:32.510Z,0.20
2018-03-19T16:13:00.060Z,0.30
2018-03-19T16:15:27.815Z,0.20
2018-03-19T16:17:55.848Z,0.20
2018-03-19T16:20:24.184Z,0.10
2018-03-19T16:22:53.061Z,0.00
2018-03-19T16:25:21.128Z,0.00
2018-03-19T16:27:48.715Z,0.00
2018-03-19T16:30:16.319Z,0.10
2018-03-19T16:32:44.630Z,0.00
2018-03-19T16:35:12.228Z,0.00
2018-03-19T16:37:40.956Z,0.00
2018-03-19T16:40:08.534Z,-0.10
2018-03-19T16:42:36.983Z,-0.10
2018-03-19T16:45:05.314Z,-0.20
2018-03-19T16:47:32.874Z,-0.30
2018-03-19T16:50:00.462Z,-0.10
2018-03-19T16:52:30.552Z,0.00
2018-03-19T16:54:58.412Z,0.10
2018-03-19T16:57:26.906Z,0.00
2018-03-19T16:59:55.514Z,-0.10
2018-03-19T17:02:23.100Z,-0.20
2018-03-19T17:04:50.710Z,-0.10
2018-03-19T17:07:18.923Z,0.10
2018-03-19T17:09:46.563Z,0.20
2018-03-19T17:12:15.503Z,0.40
2018-03-19T17:14:44.695Z,0.30
2018-03-19T17:17:12.331Z,0.20
2018-03-19T17:19:40.067Z,0.30
2018-03-19T17:22:08.200Z,0.30
2018-03-19T17:24:36.985Z,0.20
2018-03-19T17:27:04.546Z,0.20
2018-03-19T17:29:32.299Z,0.20
2018-03-19T17:32:00.117Z,0.00
2018-03-19T17:34:27.691Z,-0.20
2018-03-19T17:36:55.764Z,-0.20
2018-03-19T17:39:23.389Z,-0.10
2018-03-19T17:41:50.995Z,-0.10
2018-03-19T17:44:19.315Z,-0.10
2018-03-19T17:46:47.029Z,-0.10
2018-03-19T17:49:14.707Z,-0.10
2018-03-19T17:51:42.254Z,-0.10
2018-03-19T17:54:09.954Z,-0.20
2018-03-19T17:56:37.540Z,-0.10
2018-03-19T17:59:05.608Z,0.00
2018-03-19T18:01:33.375Z,-0.10
2018-03-19T18:04:00.924Z,0.00
2018-03-19T18:06:28.998Z,-0.10
2018-03-19T18:08:57.221Z,-0.30
2018-03-19T18:11:24.804Z,-0.40
2018-03-19T18:13:53.196Z,-0.60
2018-03-19T18:16:20.807Z,-0.60
2018-03-19T18:18:48.372Z,-0.50
2018-03-19T18:21:16.753Z,-0.30
2018-03-19T18:23:45.974Z,-0.20
2018-03-19T18:26:13.543Z,-0.20
2018-03-19T18:28:41.157Z,-0.30
2018-03-19T18:31:10.091Z,-0.30
2018-03-19T18:33:38.128Z,-0.20
2018-03-19T18:36:07.046Z,-0.10
2018-03-19T18:38:36.291Z,-0.10
2018-03-19T18:41:03.924Z,-0.20
2018-03-19T18:43:31.484Z,-0.30
2018-03-19T18:46:00.640Z,-0.40
2018-03-19T18:48:29.306Z,-0.30
2018-03-19T18:50:56.870Z,-0.20
2018-03-19T18:53:26.673Z,-0.40
2018-03-19T18:55:57.220Z,-0.60
2018-03-19T18:58:25.914Z,-0.50
2018-03-19T19:00:53.484Z,-0.60
2018-03-19T19:03:21.707Z,-0.70
2018-03-19T19:05:49.278Z,-0.80
2018-03-19T19:08:16.821Z,-0.70
2018-03-19T19:10:45.552Z,-0.70
2018-03-19T19:13:13.884Z,-0.70
2018-03-19T19:15:42.329Z,-0.50
2018-03-19T19:18:09.952Z,-0.40
2018-03-19T19:20:37.492Z,-0.30
2018-03-19T19:23:05.681Z,-0.10
2018-03-19T19:25:33.616Z,-0.40
2018-03-19T19:28:01.216Z,-0.40
2018-03-19T19:30:31.368Z,-0.40
2018-03-19T19:32:59.873Z,-0.30
2018-03-19T19:35:29.388Z,-0.30
2018-03-19T19:38:00.765Z,-0.60
2018-03-19T19:40:31.136Z,-0.80
2018-03-19T19:42:59.693Z,-0.60
2018-03-19T19:45:28.952Z,-0.70
2018-03-19T19:47:58.801Z,-0.70
2018-03-19T19:50:26.358Z,-0.70
2018-03-19T19:52:54.416Z,-0.70
2018-03-19T19:55:24.254Z,-0.50
2018-03-19T19:57:51.946Z,-0.50
2018-03-19T20:00:20.667Z,-0.50
2018-03-19T20:02:49.840Z,-0.60
2018-03-19T20:05:18.908Z,-0.40
2018-03-19T20:07:48.023Z,-0.40
2018-03-19T20:10:16.491Z,-0.40
2018-03-19T20:12:46.169Z,-0.40
2018-03-19T20:15:15.445Z,-0.50
2018-03-19T20:17:45.319Z,-0.80
2018-03-19T20:20:16.427Z,-0.80
2018-03-19T20:22:44.875Z,-0.70
2018-03-19T20:25:15.713Z,-0.60
2018-03-19T20:27:45.139Z,-0.60
2018-03-19T20:30:13.418Z,-0.50
2018-03-19T20:32:41.817Z,-0.50
2018-03-19T20:35:10.861Z,-0.40
2018-03-19T20:37:39.490Z,-0.30
2018-03-19T20:40:08.579Z,-0.40
2018-03-19T20:42:36.486Z,-0.50
2018-03-19T20:45:07.144Z,-0.60
2018-03-19T20:47:35.771Z,-0.70
2018-03-19T20:50:05.059Z,-0.70
2018-03-19T20:52:34.697Z,-0.70
2018-03-19T20:55:05.292Z,-0.50
2018-03-19T20:57:34.845Z,-0.40
2018-03-19T21:00:04.429Z,-0.50
2018-03-19T21:02:32.278Z,-0.70
2018-03-19T21:04:59.869Z,-0.70
2018-03-19T21:07:27.497Z,-0.60
2018-03-19T21:09:56.734Z,-0.50
2018-03-19T21:12:24.563Z,-0.40
2018-03-19T21:14:53.548Z,-0.30
2018-03-19T21:17:21.533Z,-0.30
2018-03-19T21:19:49.809Z,-0.10
2018-03-19T21:22:20.657Z,-0.10
2018-03-19T21:24:49.250Z,-0.10
2018-03-19T21:27:18.201Z,-0.10
2018-03-19T21:29:47.234Z,-0.10
2018-03-19T21:32:17.795Z,-0.20
2018-03-19T21:34:46.205Z,-0.30
2018-03-19T21:37:15.170Z,-0.30
2018-03-19T21:39:44.392Z,-0.10
2018-03-19T21:42:12.763Z,-0.10
2018-03-19T21:44:43.332Z,0.00
2018-03-19T21:47:11.680Z,-0.10
2018-03-19T21:49:42.277Z,0.00
2018-03-19T21:52:11.868Z,-0.10
2018-03-19T21:54:39.454Z,-0.10
2018-03-19T21:57:08.418Z,-0.20
2018-03-19T21:59:38.426Z,-0.40
2018-03-19T22:02:06.997Z,-0.60
2018-03-19T22:04:36.968Z,-0.70
2018-03-19T22:07:06.121Z,-0.80
2018-03-19T22:09:35.606Z,-1.00
2018-03-19T22:12:05.368Z,-0.80
2018-03-19T22:14:36.110Z,-0.70
2018-03-19T22:17:04.589Z,-0.70
2018-03-19T22:19:33.942Z,-0.60
2018-03-19T22:22:02.431Z,-0.70
2018-03-19T22:24:30.459Z,-0.80
2018-03-19T22:26:58.031Z,-0.70
2018-03-19T22:29:27.998Z,-0.70
2018-03-19T22:31:57.930Z,-0.70
2018-03-19T22:34:27.003Z,-0.70
2018-03-19T22:36:57.172Z,-0.80
2018-03-19T22:39:26.433Z,-0.70
2018-03-19T22:41:56.274Z,-0.60
2018-03-19T22:46:58.185Z,-0.70
2018-03-19T22:49:26.649Z,-0.70
2018-03-19T22:51:55.275Z,-0.50
2018-03-19T22:54:24.167Z,-0.30
2018-03-19T22:56:53.255Z,-0.30
2018-03-19T22:59:23.374Z,-0.40
2018-03-19T23:01:51.717Z,-0.60
2018-03-19T23:04:32.515Z,-0.60
2018-03-19T23:07:00.112Z,-0.70
2018-03-19T23:09:27.676Z,-0.60
2018-03-19T23:11:56.683Z,-0.50
2018-03-19T23:14:24.354Z,-0.60
2018-03-19T23:16:51.953Z,-0.70
2018-03-19T23:19:20.159Z,-0.70
2018-03-19T23:21:47.743Z,-0.70
2018-03-19T23:24:15.311Z,-0.80
2018-03-19T23:26:42.946Z,-0.70
2018-03-19T23:29:11.824Z,-0.70
2018-03-19T23:31:39.458Z,-0.70
2018-03-19T23:34:07.149Z,-0.70
2018-03-19T23:36:34.810Z,-0.80
2018-03-19T23:39:02.415Z,-0.80
2018-03-19T23:41:30.033Z,-0.70
2018-03-19T23:43:57.591Z,-0.70
2018-03-19T23:46:26.715Z,-0.80
2018-03-19T23:48:55.829Z,-0.70
2018-03-19T23:51:23.409Z,-0.80
2018-03-19T23:53:50.982Z,-0.70
2018-03-19T23:56:18.580Z,-0.70
2018-03-19T23:58:47.290Z,-0.80
